sensor_id;sensor_type;location;lat;lon;timestamp;P1;durP1;ratioP1;P2;durP2;ratioP2
20034;SDS011;10178;48.034;9.800;2023-02-07T00:00:14;17.40;;;10.60;;
20034;SDS011;10178;48.034;9.800;2023-02-07T00:02:45;18.60;;;10.93;;
20034;SDS011;10178;48.034;9.800;2023-02-07T00:05:12;15.53;;;10.43;;
20034;SDS011;10178;48.034;9.800;2023-02-07T00:07:38;15.90;;;10.87;;
20034;SDS011;10178;48.034;9.800;2023-02-07T00:10:04;19.10;;;11.23;;
20034;SDS011;10178;48.034;9.800;2023-02-07T00:12:31;16.40;;;11.07;;
20034;SDS011;10178;48.034;9.800;2023-02-07T00:14:57;16.53;;;10.73;;
20034;SDS011;10178;48.034;9.800;2023-02-07T00:17:23;16.93;;;11.57;;
20034;SDS011;10178;48.034;9.800;2023-02-07T00:19:49;16.63;;;11.00;;
20034;SDS011;10178;48.034;9.800;2023-02-07T00:22:14;18.97;;;11.97;;
20034;SDS011;10178;48.034;9.800;2023-02-07T00:24:40;16.90;;;11.23;;
20034;SDS011;10178;48.034;9.800;2023-02-07T00:27:06;23.30;;;11.83;;
20034;SDS011;10178;48.034;9.800;2023-02-07T00:29:31;18.93;;;11.40;;
20034;SDS011;10178;48.034;9.800;2023-02-07T00:31:57;17.30;;;11.37;;
20034;SDS011;10178;48.034;9.800;2023-02-07T00:34:23;16.00;;;11.63;;
20034;SDS011;10178;48.034;9.800;2023-02-07T00:36:48;21.57;;;13.07;;
20034;SDS011;10178;48.034;9.800;2023-02-07T00:39:14;16.97;;;11.57;;
20034;SDS011;10178;48.034;9.800;2023-02-07T00:41:41;22.50;;;12.07;;
20034;SDS011;10178;48.034;9.800;2023-02-07T00:44:08;18.77;;;12.30;;
20034;SDS011;10178;48.034;9.800;2023-02-07T00:46:34;18.27;;;12.13;;
20034;SDS011;10178;48.034;9.800;2023-02-07T00:49:00;17.07;;;11.27;;
20034;SDS011;10178;48.034;9.800;2023-02-07T00:51:25;18.67;;;11.60;;
20034;SDS011;10178;48.034;9.800;2023-02-07T00:53:52;19.67;;;11.67;;
20034;SDS011;10178;48.034;9.800;2023-02-07T00:56:19;17.87;;;10.67;;
20034;SDS011;10178;48.034;9.800;2023-02-07T00:58:45;16.47;;;11.07;;
20034;SDS011;10178;48.034;9.800;2023-02-07T01:01:11;17.33;;;11.00;;
20034;SDS011;10178;48.034;9.800;2023-02-07T01:03:37;18.17;;;10.70;;
20034;SDS011;10178;48.034;9.800;2023-02-07T01:06:03;17.50;;;10.90;;
20034;SDS011;10178;48.034;9.800;2023-02-07T01:08:29;16.07;;;10.60;;
20034;SDS011;10178;48.034;9.800;2023-02-07T01:10:55;16.97;;;11.10;;
20034;SDS011;10178;48.034;9.800;2023-02-07T01:13:25;17.20;;;10.97;;
20034;SDS011;10178;48.034;9.800;2023-02-07T01:15:50;17.13;;;11.30;;
20034;SDS011;10178;48.034;9.800;2023-02-07T01:18:16;17.23;;;11.13;;
20034;SDS011;10178;48.034;9.800;2023-02-07T01:20:42;18.37;;;12.07;;
20034;SDS011;10178;48.034;9.800;2023-02-07T01:23:08;19.73;;;12.03;;
20034;SDS011;10178;48.034;9.800;2023-02-07T01:25:36;19.20;;;11.80;;
20034;SDS011;10178;48.034;9.800;2023-02-07T01:28:02;18.63;;;11.87;;
20034;SDS011;10178;48.034;9.800;2023-02-07T01:30:27;18.90;;;11.77;;
20034;SDS011;10178;48.034;9.800;2023-02-07T01:32:53;17.67;;;11.77;;
20034;SDS011;10178;48.034;9.800;2023-02-07T01:35:18;17.33;;;10.97;;
20034;SDS011;10178;48.034;9.800;2023-02-07T01:37:44;19.37;;;12.00;;
20034;SDS011;10178;48.034;9.800;2023-02-07T01:40:10;20.00;;;12.07;;
20034;SDS011;10178;48.034;9.800;2023-02-07T01:42:37;17.57;;;11.50;;
20034;SDS011;10178;48.034;9.800;2023-02-07T01:47:59;23.53;;;12.20;;
20034;SDS011;10178;48.034;9.800;2023-02-07T01:50:28;21.60;;;12.10;;
20034;SDS011;10178;48.034;9.800;2023-02-07T01:52:55;18.50;;;11.83;;
20034;SDS011;10178;48.034;9.800;2023-02-07T01:55:25;19.93;;;12.30;;
20034;SDS011;10178;48.034;9.800;2023-02-07T01:57:53;24.07;;;13.00;;
20034;SDS011;10178;48.034;9.800;2023-02-07T02:00:19;18.60;;;11.50;;
20034;SDS011;10178;48.034;9.800;2023-02-07T02:02:45;19.27;;;12.30;;
20034;SDS011;10178;48.034;9.800;2023-02-07T02:05:11;18.03;;;11.90;;
20034;SDS011;10178;48.034;9.800;2023-02-07T02:07:39;20.33;;;12.73;;
20034;SDS011;10178;48.034;9.800;2023-02-07T02:10:08;18.60;;;12.57;;
20034;SDS011;10178;48.034;9.800;2023-02-07T02:13:00;20.30;;;13.00;;
20034;SDS011;10178;48.034;9.800;2023-02-07T02:18:01;19.93;;;12.70;;
20034;SDS011;10178;48.034;9.800;2023-02-07T02:26:55;23.27;;;12.50;;
20034;SDS011;10178;48.034;9.800;2023-02-07T02:35:14;22.60;;;14.13;;
20034;SDS011;10178;48.034;9.800;2023-02-07T02:41:12;19.03;;;13.13;;
20034;SDS011;10178;48.034;9.800;2023-02-07T02:43:45;23.70;;;13.40;;
20034;SDS011;10178;48.034;9.800;2023-02-07T02:46:28;18.43;;;12.53;;
20034;SDS011;10178;48.034;9.800;2023-02-07T02:48:58;18.40;;;12.30;;
20034;SDS011;10178;48.034;9.800;2023-02-07T02:51:29;18.83;;;12.57;;
20034;SDS011;10178;48.034;9.800;2023-02-07T02:53:56;21.97;;;13.23;;
20034;SDS011;10178;48.034;9.800;2023-02-07T02:56:30;20.37;;;13.43;;
20034;SDS011;10178;48.034;9.800;2023-02-07T03:15:29;24.40;;;13.73;;
20034;SDS011;10178;48.034;9.800;2023-02-07T03:20:36;21.53;;;14.17;;
20034;SDS011;10178;48.034;9.800;2023-02-07T03:23:07;22.03;;;14.23;;
20034;SDS011;10178;48.034;9.800;2023-02-07T03:25:34;22.77;;;14.20;;
20034;SDS011;10178;48.034;9.800;2023-02-07T03:28:01;22.27;;;14.63;;
20034;SDS011;10178;48.034;9.800;2023-02-07T03:30:29;22.43;;;14.93;;
20034;SDS011;10178;48.034;9.800;2023-02-07T03:32:58;21.90;;;15.67;;
20034;SDS011;10178;48.034;9.800;2023-02-07T03:35:34;21.83;;;14.17;;
20034;SDS011;10178;48.034;9.800;2023-02-07T03:38:08;22.73;;;14.53;;
20034;SDS011;10178;48.034;9.800;2023-02-07T03:40:37;22.43;;;15.50;;
20034;SDS011;10178;48.034;9.800;2023-02-07T03:45:34;25.33;;;15.40;;
20034;SDS011;10178;48.034;9.800;2023-02-07T03:48:00;25.07;;;15.57;;
20034;SDS011;10178;48.034;9.800;2023-02-07T03:50:26;23.53;;;16.63;;
20034;SDS011;10178;48.034;9.800;2023-02-07T03:52:51;24.67;;;15.17;;
20034;SDS011;10178;48.034;9.800;2023-02-07T03:55:17;22.83;;;15.13;;
20034;SDS011;10178;48.034;9.800;2023-02-07T03:57:43;21.80;;;14.60;;
20034;SDS011;10178;48.034;9.800;2023-02-07T04:00:08;25.13;;;15.53;;
20034;SDS011;10178;48.034;9.800;2023-02-07T04:02:35;22.73;;;15.03;;
20034;SDS011;10178;48.034;9.800;2023-02-07T04:05:00;24.87;;;16.57;;
20034;SDS011;10178;48.034;9.800;2023-02-07T04:07:26;23.77;;;16.00;;
20034;SDS011;10178;48.034;9.800;2023-02-07T04:09:52;22.17;;;15.03;;
20034;SDS011;10178;48.034;9.800;2023-02-07T04:12:17;24.17;;;16.03;;
20034;SDS011;10178;48.034;9.800;2023-02-07T04:14:43;22.67;;;15.13;;
20034;SDS011;10178;48.034;9.800;2023-02-07T04:17:08;25.30;;;15.63;;
20034;SDS011;10178;48.034;9.800;2023-02-07T04:19:34;21.83;;;15.20;;
20034;SDS011;10178;48.034;9.800;2023-02-07T04:22:00;25.17;;;15.67;;
20034;SDS011;10178;48.034;9.800;2023-02-07T04:24:25;25.13;;;16.13;;
20034;SDS011;10178;48.034;9.800;2023-02-07T04:26:51;24.37;;;16.10;;
20034;SDS011;10178;48.034;9.800;2023-02-07T04:29:17;24.80;;;16.70;;
20034;SDS011;10178;48.034;9.800;2023-02-07T04:31:42;24.43;;;16.07;;
20034;SDS011;10178;48.034;9.800;2023-02-07T04:34:08;23.47;;;15.80;;
20034;SDS011;10178;48.034;9.800;2023-02-07T04:36:34;23.63;;;14.87;;
20034;SDS011;10178;48.034;9.800;2023-02-07T04:39:00;23.20;;;15.87;;
20034;SDS011;10178;48.034;9.800;2023-02-07T04:41:26;27.83;;;17.40;;
20034;SDS011;10178;48.034;9.800;2023-02-07T04:43:52;22.20;;;15.07;;
20034;SDS011;10178;48.034;9.800;2023-02-07T04:46:19;29.77;;;17.73;;
20034;SDS011;10178;48.034;9.800;2023-02-07T04:48:45;26.10;;;16.63;;
20034;SDS011;10178;48.034;9.800;2023-02-07T04:51:12;26.93;;;16.30;;
20034;SDS011;10178;48.034;9.800;2023-02-07T04:53:38;22.73;;;14.90;;
20034;SDS011;10178;48.034;9.800;2023-02-07T04:56:03;24.20;;;15.77;;
20034;SDS011;10178;48.034;9.800;2023-02-07T04:58:29;23.23;;;14.97;;
20034;SDS011;10178;48.034;9.800;2023-02-07T05:00:55;23.37;;;15.43;;
20034;SDS011;10178;48.034;9.800;2023-02-07T05:03:20;24.33;;;15.17;;
20034;SDS011;10178;48.034;9.800;2023-02-07T05:05:46;20.60;;;14.27;;
20034;SDS011;10178;48.034;9.800;2023-02-07T05:08:12;19.90;;;14.13;;
20034;SDS011;10178;48.034;9.800;2023-02-07T05:10:38;22.63;;;14.83;;
20034;SDS011;10178;48.034;9.800;2023-02-07T05:13:04;19.33;;;14.07;;
20034;SDS011;10178;48.034;9.800;2023-02-07T05:15:31;20.10;;;14.70;;
20034;SDS011;10178;48.034;9.800;2023-02-07T05:17:57;23.13;;;14.33;;
20034;SDS011;10178;48.034;9.800;2023-02-07T05:20:23;20.20;;;14.77;;
20034;SDS011;10178;48.034;9.800;2023-02-07T05:22:49;22.97;;;14.90;;
20034;SDS011;10178;48.034;9.800;2023-02-07T05:25:15;21.73;;;14.80;;
20034;SDS011;10178;48.034;9.800;2023-02-07T05:27:41;23.30;;;14.40;;
20034;SDS011;10178;48.034;9.800;2023-02-07T05:30:07;20.77;;;14.23;;
20034;SDS011;10178;48.034;9.800;2023-02-07T05:32:33;21.43;;;13.83;;
20034;SDS011;10178;48.034;9.800;2023-02-07T05:35:18;23.13;;;13.90;;
20034;SDS011;10178;48.034;9.800;2023-02-07T05:37:43;21.50;;;14.20;;
20034;SDS011;10178;48.034;9.800;2023-02-07T05:40:09;22.83;;;13.97;;
20034;SDS011;10178;48.034;9.800;2023-02-07T05:42:37;22.77;;;14.77;;
20034;SDS011;10178;48.034;9.800;2023-02-07T05:45:03;23.10;;;14.10;;
20034;SDS011;10178;48.034;9.800;2023-02-07T05:47:30;23.10;;;14.77;;
20034;SDS011;10178;48.034;9.800;2023-02-07T05:49:55;18.73;;;13.13;;
20034;SDS011;10178;48.034;9.800;2023-02-07T05:52:21;20.83;;;14.13;;
20034;SDS011;10178;48.034;9.800;2023-02-07T05:54:46;23.80;;;14.60;;
20034;SDS011;10178;48.034;9.800;2023-02-07T05:57:12;20.63;;;14.23;;
20034;SDS011;10178;48.034;9.800;2023-02-07T05:59:38;19.20;;;13.60;;
20034;SDS011;10178;48.034;9.800;2023-02-07T06:02:03;25.13;;;14.57;;
20034;SDS011;10178;48.034;9.800;2023-02-07T06:04:29;19.17;;;13.17;;
20034;SDS011;10178;48.034;9.800;2023-02-07T06:06:54;20.77;;;13.77;;
20034;SDS011;10178;48.034;9.800;2023-02-07T06:09:20;21.27;;;14.87;;
20034;SDS011;10178;48.034;9.800;2023-02-07T06:11:46;19.67;;;14.27;;
20034;SDS011;10178;48.034;9.800;2023-02-07T06:14:12;22.27;;;14.50;;
20034;SDS011;10178;48.034;9.800;2023-02-07T06:16:38;20.17;;;13.70;;
20034;SDS011;10178;48.034;9.800;2023-02-07T06:19:03;21.30;;;13.73;;
20034;SDS011;10178;48.034;9.800;2023-02-07T06:21:29;20.00;;;13.73;;
20034;SDS011;10178;48.034;9.800;2023-02-07T06:23:55;20.90;;;13.67;;
20034;SDS011;10178;48.034;9.800;2023-02-07T06:26:21;20.63;;;14.37;;
20034;SDS011;10178;48.034;9.800;2023-02-07T06:28:46;20.23;;;13.63;;
20034;SDS011;10178;48.034;9.800;2023-02-07T06:31:12;22.93;;;14.30;;
20034;SDS011;10178;48.034;9.800;2023-02-07T06:33:38;20.27;;;14.27;;
20034;SDS011;10178;48.034;9.800;2023-02-07T06:36:03;19.87;;;13.83;;
20034;SDS011;10178;48.034;9.800;2023-02-07T06:38:29;19.70;;;13.33;;
20034;SDS011;10178;48.034;9.800;2023-02-07T06:40:55;21.13;;;14.13;;
20034;SDS011;10178;48.034;9.800;2023-02-07T06:43:21;22.17;;;14.30;;
20034;SDS011;10178;48.034;9.800;2023-02-07T06:45:46;20.77;;;14.43;;
20034;SDS011;10178;48.034;9.800;2023-02-07T06:48:12;20.83;;;14.13;;
20034;SDS011;10178;48.034;9.800;2023-02-07T06:50:37;22.20;;;14.27;;
20034;SDS011;10178;48.034;9.800;2023-02-07T06:53:03;21.53;;;13.33;;
20034;SDS011;10178;48.034;9.800;2023-02-07T06:55:35;20.77;;;13.87;;
20034;SDS011;10178;48.034;9.800;2023-02-07T06:58:02;19.50;;;13.10;;
20034;SDS011;10178;48.034;9.800;2023-02-07T07:00:28;21.30;;;13.17;;
20034;SDS011;10178;48.034;9.800;2023-02-07T07:02:54;22.23;;;13.63;;
20034;SDS011;10178;48.034;9.800;2023-02-07T07:05:19;21.43;;;13.77;;
20034;SDS011;10178;48.034;9.800;2023-02-07T07:07:45;18.63;;;14.00;;
20034;SDS011;10178;48.034;9.800;2023-02-07T07:10:11;23.20;;;15.00;;
20034;SDS011;10178;48.034;9.800;2023-02-07T07:12:38;20.80;;;13.57;;
20034;SDS011;10178;48.034;9.800;2023-02-07T07:15:04;19.63;;;13.67;;
20034;SDS011;10178;48.034;9.800;2023-02-07T07:17:29;24.03;;;13.57;;
20034;SDS011;10178;48.034;9.800;2023-02-07T07:19:55;20.77;;;14.00;;
20034;SDS011;10178;48.034;9.800;2023-02-07T07:22:21;23.60;;;14.23;;
20034;SDS011;10178;48.034;9.800;2023-02-07T07:24:46;24.60;;;14.63;;
20034;SDS011;10178;48.034;9.800;2023-02-07T07:27:12;24.47;;;14.63;;
20034;SDS011;10178;48.034;9.800;2023-02-07T07:29:38;20.60;;;13.30;;
20034;SDS011;10178;48.034;9.800;2023-02-07T07:32:04;26.23;;;15.83;;
20034;SDS011;10178;48.034;9.800;2023-02-07T07:34:30;23.63;;;15.20;;
20034;SDS011;10178;48.034;9.800;2023-02-07T07:36:55;23.77;;;14.67;;
20034;SDS011;10178;48.034;9.800;2023-02-07T07:39:22;28.23;;;14.33;;
20034;SDS011;10178;48.034;9.800;2023-02-07T07:41:48;24.77;;;14.93;;
20034;SDS011;10178;48.034;9.800;2023-02-07T07:44:14;24.83;;;14.73;;
20034;SDS011;10178;48.034;9.800;2023-02-07T07:46:40;28.73;;;15.10;;
20034;SDS011;10178;48.034;9.800;2023-02-07T07:49:06;25.53;;;16.03;;
20034;SDS011;10178;48.034;9.800;2023-02-07T07:51:32;27.03;;;16.60;;
20034;SDS011;10178;48.034;9.800;2023-02-07T07:53:57;26.97;;;14.93;;
20034;SDS011;10178;48.034;9.800;2023-02-07T07:56:23;25.60;;;15.20;;
20034;SDS011;10178;48.034;9.800;2023-02-07T07:58:49;25.87;;;15.47;;
20034;SDS011;10178;48.034;9.800;2023-02-07T08:01:14;25.57;;;15.17;;
20034;SDS011;10178;48.034;9.800;2023-02-07T08:03:40;26.80;;;15.67;;
20034;SDS011;10178;48.034;9.800;2023-02-07T08:06:06;24.43;;;15.30;;
20034;SDS011;10178;48.034;9.800;2023-02-07T08:08:32;24.50;;;14.37;;
20034;SDS011;10178;48.034;9.800;2023-02-07T08:11:01;24.70;;;14.50;;
20034;SDS011;10178;48.034;9.800;2023-02-07T08:13:28;18.83;;;10.23;;
20034;SDS011;10178;48.034;9.800;2023-02-07T08:15:54;22.97;;;12.20;;
20034;SDS011;10178;48.034;9.800;2023-02-07T08:18:19;30.35;;;20.77;;
20034;SDS011;10178;48.034;9.800;2023-02-07T08:20:47;27.90;;;17.07;;
20034;SDS011;10178;48.034;9.800;2023-02-07T08:23:13;28.03;;;16.47;;
20034;SDS011;10178;48.034;9.800;2023-02-07T08:25:39;25.83;;;15.50;;
20034;SDS011;10178;48.034;9.800;2023-02-07T08:28:06;26.10;;;15.77;;
20034;SDS011;10178;48.034;9.800;2023-02-07T08:30:33;27.70;;;15.70;;
20034;SDS011;10178;48.034;9.800;2023-02-07T08:32:59;30.50;;;16.30;;
20034;SDS011;10178;48.034;9.800;2023-02-07T08:35:24;24.13;;;15.60;;
20034;SDS011;10178;48.034;9.800;2023-02-07T08:37:52;25.40;;;15.47;;
20034;SDS011;10178;48.034;9.800;2023-02-07T08:40:19;21.47;;;15.30;;
20034;SDS011;10178;48.034;9.800;2023-02-07T08:42:45;22.47;;;15.27;;
20034;SDS011;10178;48.034;9.800;2023-02-07T08:45:12;26.17;;;16.03;;
20034;SDS011;10178;48.034;9.800;2023-02-07T08:47:40;23.60;;;14.67;;
20034;SDS011;10178;48.034;9.800;2023-02-07T08:50:06;23.00;;;15.60;;
20034;SDS011;10178;48.034;9.800;2023-02-07T08:52:32;22.83;;;15.20;;
20034;SDS011;10178;48.034;9.800;2023-02-07T08:54:58;22.10;;;14.43;;
20034;SDS011;10178;48.034;9.800;2023-02-07T08:57:23;24.00;;;14.47;;
20034;SDS011;10178;48.034;9.800;2023-02-07T08:59:50;22.23;;;15.27;;
20034;SDS011;10178;48.034;9.800;2023-02-07T09:02:16;23.83;;;14.70;;
20034;SDS011;10178;48.034;9.800;2023-02-07T09:04:42;21.60;;;14.23;;
20034;SDS011;10178;48.034;9.800;2023-02-07T09:07:10;22.73;;;15.17;;
20034;SDS011;10178;48.034;9.800;2023-02-07T09:09:36;22.17;;;15.03;;
20034;SDS011;10178;48.034;9.800;2023-02-07T09:12:02;24.60;;;14.77;;
20034;SDS011;10178;48.034;9.800;2023-02-07T09:14:28;25.00;;;14.97;;
20034;SDS011;10178;48.034;9.800;2023-02-07T09:16:54;26.50;;;15.77;;
20034;SDS011;10178;48.034;9.800;2023-02-07T09:19:19;24.20;;;15.97;;
20034;SDS011;10178;48.034;9.800;2023-02-07T09:21:45;24.97;;;14.47;;
20034;SDS011;10178;48.034;9.800;2023-02-07T09:24:11;25.67;;;15.97;;
20034;SDS011;10178;48.034;9.800;2023-02-07T09:26:36;24.07;;;15.00;;
20034;SDS011;10178;48.034;9.800;2023-02-07T09:29:03;25.10;;;15.33;;
20034;SDS011;10178;48.034;9.800;2023-02-07T09:31:30;25.37;;;15.80;;
20034;SDS011;10178;48.034;9.800;2023-02-07T09:33:56;21.73;;;14.83;;
20034;SDS011;10178;48.034;9.800;2023-02-07T09:36:23;22.30;;;15.43;;
20034;SDS011;10178;48.034;9.800;2023-02-07T09:38:51;24.10;;;15.23;;
20034;SDS011;10178;48.034;9.800;2023-02-07T09:41:19;25.10;;;15.73;;
20034;SDS011;10178;48.034;9.800;2023-02-07T09:51:47;23.40;;;15.70;;
20034;SDS011;10178;48.034;9.800;2023-02-07T09:56:53;24.63;;;15.33;;
20034;SDS011;10178;48.034;9.800;2023-02-07T10:05:02;26.17;;;16.53;;
20034;SDS011;10178;48.034;9.800;2023-02-07T10:07:31;65.77;;;39.00;;
20034;SDS011;10178;48.034;9.800;2023-02-07T10:09:57;61.70;;;33.40;;
20034;SDS011;10178;48.034;9.800;2023-02-07T10:20:53;46.80;;;29.27;;
20034;SDS011;10178;48.034;9.800;2023-02-07T10:24:00;45.60;;;28.60;;
20034;SDS011;10178;48.034;9.800;2023-02-07T10:26:44;50.20;;;26.73;;
20034;SDS011;10178;48.034;9.800;2023-02-07T10:29:34;41.00;;;24.43;;
20034;SDS011;10178;48.034;9.800;2023-02-07T10:32:19;38.37;;;23.30;;
20034;SDS011;10178;48.034;9.800;2023-02-07T10:37:23;36.77;;;22.13;;
20034;SDS011;10178;48.034;9.800;2023-02-07T10:40:04;32.40;;;20.07;;
20034;SDS011;10178;48.034;9.800;2023-02-07T10:42:41;32.73;;;20.93;;
20034;SDS011;10178;48.034;9.800;2023-02-07T10:45:11;33.23;;;21.13;;
20034;SDS011;10178;48.034;9.800;2023-02-07T10:47:38;30.87;;;19.27;;
20034;SDS011;10178;48.034;9.800;2023-02-07T10:50:10;28.83;;;20.70;;
20034;SDS011;10178;48.034;9.800;2023-02-07T10:52:42;31.07;;;20.10;;
20034;SDS011;10178;48.034;9.800;2023-02-07T10:55:19;28.80;;;18.43;;
20034;SDS011;10178;48.034;9.800;2023-02-07T10:57:58;32.40;;;19.17;;
20034;SDS011;10178;48.034;9.800;2023-02-07T11:02:54;26.00;;;18.10;;
20034;SDS011;10178;48.034;9.800;2023-02-07T11:05:53;26.17;;;18.40;;
20034;SDS011;10178;48.034;9.800;2023-02-07T11:08:30;29.70;;;17.27;;
20034;SDS011;10178;48.034;9.800;2023-02-07T11:10:58;26.83;;;17.57;;
20034;SDS011;10178;48.034;9.800;2023-02-07T11:13:46;30.40;;;17.93;;
20034;SDS011;10178;48.034;9.800;2023-02-07T11:16:15;26.13;;;16.97;;
20034;SDS011;10178;48.034;9.800;2023-02-07T11:24:03;25.07;;;16.93;;
20034;SDS011;10178;48.034;9.800;2023-02-07T11:26:32;26.47;;;16.67;;
20034;SDS011;10178;48.034;9.800;2023-02-07T11:29:15;27.10;;;18.10;;
20034;SDS011;10178;48.034;9.800;2023-02-07T11:31:44;27.13;;;17.10;;
20034;SDS011;10178;48.034;9.800;2023-02-07T11:37:15;26.77;;;17.67;;
20034;SDS011;10178;48.034;9.800;2023-02-07T11:39:47;23.90;;;15.77;;
20034;SDS011;10178;48.034;9.800;2023-02-07T11:42:29;25.87;;;16.77;;
20034;SDS011;10178;48.034;9.800;2023-02-07T11:44:59;26.37;;;16.63;;
20034;SDS011;10178;48.034;9.800;2023-02-07T11:47:28;27.63;;;17.30;;
20034;SDS011;10178;48.034;9.800;2023-02-07T11:49:56;24.80;;;16.80;;
20034;SDS011;10178;48.034;9.800;2023-02-07T11:52:24;24.43;;;16.20;;
20034;SDS011;10178;48.034;9.800;2023-02-07T11:54:55;24.97;;;17.73;;
20034;SDS011;10178;48.034;9.800;2023-02-07T11:57:25;24.50;;;17.00;;
20034;SDS011;10178;48.034;9.800;2023-02-07T12:02:23;27.50;;;16.53;;
20034;SDS011;10178;48.034;9.800;2023-02-07T12:04:51;26.63;;;17.17;;
20034;SDS011;10178;48.034;9.800;2023-02-07T12:07:25;22.27;;;15.93;;
20034;SDS011;10178;48.034;9.800;2023-02-07T12:09:59;25.67;;;16.83;;
20034;SDS011;10178;48.034;9.800;2023-02-07T12:15:22;28.77;;;16.80;;
20034;SDS011;10178;48.034;9.800;2023-02-07T12:20:32;24.83;;;16.47;;
20034;SDS011;10178;48.034;9.800;2023-02-07T12:25:55;26.10;;;15.87;;
20034;SDS011;10178;48.034;9.800;2023-02-07T12:28:48;23.17;;;15.63;;
20034;SDS011;10178;48.034;9.800;2023-02-07T12:31:25;22.90;;;16.43;;
20034;SDS011;10178;48.034;9.800;2023-02-07T12:34:11;27.87;;;17.37;;
20034;SDS011;10178;48.034;9.800;2023-02-07T12:36:45;22.93;;;15.37;;
20034;SDS011;10178;48.034;9.800;2023-02-07T12:41:48;25.17;;;16.17;;
20034;SDS011;10178;48.034;9.800;2023-02-07T12:44:34;21.43;;;15.67;;
20034;SDS011;10178;48.034;9.800;2023-02-07T12:55:19;23.30;;;15.63;;
20034;SDS011;10178;48.034;9.800;2023-02-07T13:00:56;24.17;;;16.50;;
20034;SDS011;10178;48.034;9.800;2023-02-07T13:06:09;26.60;;;16.67;;
20034;SDS011;10178;48.034;9.800;2023-02-07T13:08:40;25.53;;;16.07;;
20034;SDS011;10178;48.034;9.800;2023-02-07T13:14:35;23.67;;;15.67;;
20034;SDS011;10178;48.034;9.800;2023-02-07T13:19:47;21.47;;;15.67;;
20034;SDS011;10178;48.034;9.800;2023-02-07T13:22:27;22.30;;;15.90;;
20034;SDS011;10178;48.034;9.800;2023-02-07T13:25:31;24.00;;;16.00;;
20034;SDS011;10178;48.034;9.800;2023-02-07T13:28:02;24.63;;;16.30;;
20034;SDS011;10178;48.034;9.800;2023-02-07T13:30:32;25.37;;;17.00;;
20034;SDS011;10178;48.034;9.800;2023-02-07T13:32:59;24.63;;;15.60;;
20034;SDS011;10178;48.034;9.800;2023-02-07T13:35:30;26.90;;;17.13;;
20034;SDS011;10178;48.034;9.800;2023-02-07T13:38:03;25.27;;;16.93;;
20034;SDS011;10178;48.034;9.800;2023-02-07T13:40:54;27.97;;;16.10;;
20034;SDS011;10178;48.034;9.800;2023-02-07T13:43:42;25.40;;;16.03;;
20034;SDS011;10178;48.034;9.800;2023-02-07T13:46:35;28.63;;;17.03;;
20034;SDS011;10178;48.034;9.800;2023-02-07T13:52:04;23.53;;;16.53;;
20034;SDS011;10178;48.034;9.800;2023-02-07T14:00:21;24.87;;;16.53;;
20034;SDS011;10178;48.034;9.800;2023-02-07T14:02:57;23.23;;;16.00;;
20034;SDS011;10178;48.034;9.800;2023-02-07T14:16:01;25.10;;;16.77;;
20034;SDS011;10178;48.034;9.800;2023-02-07T14:31:49;27.50;;;16.70;;
20034;SDS011;10178;48.034;9.800;2023-02-07T14:34:18;30.47;;;17.67;;
20034;SDS011;10178;48.034;9.800;2023-02-07T14:36:45;27.03;;;16.70;;
20034;SDS011;10178;48.034;9.800;2023-02-07T14:41:43;29.00;;;17.57;;
20034;SDS011;10178;48.034;9.800;2023-02-07T14:44:25;26.13;;;16.23;;
20034;SDS011;10178;48.034;9.800;2023-02-07T14:46:56;28.23;;;17.13;;
20034;SDS011;10178;48.034;9.800;2023-02-07T14:49:29;26.27;;;16.67;;
20034;SDS011;10178;48.034;9.800;2023-02-07T14:54:57;29.77;;;17.87;;
20034;SDS011;10178;48.034;9.800;2023-02-07T15:05:20;28.57;;;18.90;;
20034;SDS011;10178;48.034;9.800;2023-02-07T15:10:33;28.30;;;18.73;;
20034;SDS011;10178;48.034;9.800;2023-02-07T15:13:04;27.07;;;17.47;;
20034;SDS011;10178;48.034;9.800;2023-02-07T15:15:43;26.90;;;17.97;;
20034;SDS011;10178;48.034;9.800;2023-02-07T15:18:16;24.63;;;16.77;;
20034;SDS011;10178;48.034;9.800;2023-02-07T15:20:47;29.67;;;18.13;;
20034;SDS011;10178;48.034;9.800;2023-02-07T15:23:17;28.87;;;17.63;;
20034;SDS011;10178;48.034;9.800;2023-02-07T15:25:44;26.73;;;16.57;;
20034;SDS011;10178;48.034;9.800;2023-02-07T15:28:23;25.30;;;16.63;;
20034;SDS011;10178;48.034;9.800;2023-02-07T15:31:01;24.27;;;17.07;;
20034;SDS011;10178;48.034;9.800;2023-02-07T15:33:30;25.53;;;16.37;;
20034;SDS011;10178;48.034;9.800;2023-02-07T15:36:02;23.47;;;16.30;;
20034;SDS011;10178;48.034;9.800;2023-02-07T15:38:31;24.90;;;16.83;;
20034;SDS011;10178;48.034;9.800;2023-02-07T15:40:57;25.30;;;17.07;;
20034;SDS011;10178;48.034;9.800;2023-02-07T15:43:25;22.70;;;16.10;;
20034;SDS011;10178;48.034;9.800;2023-02-07T15:45:57;24.53;;;17.10;;
20034;SDS011;10178;48.034;9.800;2023-02-07T15:48:44;24.33;;;16.03;;
20034;SDS011;10178;48.034;9.800;2023-02-07T15:51:37;22.97;;;16.27;;
20034;SDS011;10178;48.034;9.800;2023-02-07T15:54:05;23.93;;;16.23;;
20034;SDS011;10178;48.034;9.800;2023-02-07T15:56:39;25.37;;;16.63;;
20034;SDS011;10178;48.034;9.800;2023-02-07T15:59:10;24.30;;;15.80;;
20034;SDS011;10178;48.034;9.800;2023-02-07T16:01:42;24.47;;;16.20;;
20034;SDS011;10178;48.034;9.800;2023-02-07T16:04:14;22.30;;;15.90;;
20034;SDS011;10178;48.034;9.800;2023-02-07T16:06:44;25.90;;;17.13;;
20034;SDS011;10178;48.034;9.800;2023-02-07T16:12:25;22.03;;;15.67;;
20034;SDS011;10178;48.034;9.800;2023-02-07T16:15:20;23.47;;;16.07;;
20034;SDS011;10178;48.034;9.800;2023-02-07T16:17:46;23.30;;;16.27;;
20034;SDS011;10178;48.034;9.800;2023-02-07T16:20:12;27.10;;;16.83;;
20034;SDS011;10178;48.034;9.800;2023-02-07T16:22:39;27.97;;;16.47;;
20034;SDS011;10178;48.034;9.800;2023-02-07T16:25:11;22.50;;;15.43;;
20034;SDS011;10178;48.034;9.800;2023-02-07T16:27:39;27.37;;;16.17;;
20034;SDS011;10178;48.034;9.800;2023-02-07T16:30:05;26.60;;;16.60;;
20034;SDS011;10178;48.034;9.800;2023-02-07T16:32:36;23.97;;;16.33;;
20034;SDS011;10178;48.034;9.800;2023-02-07T16:35:04;23.23;;;15.60;;
20034;SDS011;10178;48.034;9.800;2023-02-07T16:37:39;22.83;;;15.93;;
20034;SDS011;10178;48.034;9.800;2023-02-07T16:40:05;24.30;;;16.27;;
20034;SDS011;10178;48.034;9.800;2023-02-07T16:42:31;22.80;;;15.03;;
20034;SDS011;10178;48.034;9.800;2023-02-07T16:44:56;25.83;;;15.13;;
20034;SDS011;10178;48.034;9.800;2023-02-07T16:47:22;27.53;;;17.40;;
20034;SDS011;10178;48.034;9.800;2023-02-07T16:49:48;21.53;;;14.87;;
20034;SDS011;10178;48.034;9.800;2023-02-07T16:52:13;24.77;;;15.80;;
20034;SDS011;10178;48.034;9.800;2023-02-07T16:54:39;23.93;;;15.87;;
20034;SDS011;10178;48.034;9.800;2023-02-07T16:57:04;24.23;;;16.43;;
20034;SDS011;10178;48.034;9.800;2023-02-07T16:59:30;28.57;;;16.60;;
20034;SDS011;10178;48.034;9.800;2023-02-07T17:01:56;22.60;;;15.60;;
20034;SDS011;10178;48.034;9.800;2023-02-07T17:04:22;21.97;;;15.50;;
20034;SDS011;10178;48.034;9.800;2023-02-07T17:06:48;25.37;;;16.63;;
20034;SDS011;10178;48.034;9.800;2023-02-07T17:09:14;26.70;;;15.47;;
20034;SDS011;10178;48.034;9.800;2023-02-07T17:11:41;24.97;;;15.47;;
20034;SDS011;10178;48.034;9.800;2023-02-07T17:14:07;22.97;;;15.87;;
20034;SDS011;10178;48.034;9.800;2023-02-07T17:16:33;24.13;;;15.53;;